createdAt,value
2022-12-19T00:00:04.135Z,1.14
2022-12-19T00:01:04.111Z,1.16
2022-12-19T00:02:04.261Z,1.16
2022-12-19T00:03:04.241Z,1.16
2022-12-19T00:04:07.662Z,1.05
2022-12-19T00:05:03.995Z,1.18
2022-12-19T00:06:03.963Z,1.15
2022-12-19T00:07:03.934Z,1.08
2022-12-19T00:08:06.248Z,1.12
2022-12-19T00:09:03.883Z,1.11
2022-12-19T00:10:03.843Z,1.08
2022-12-19T00:11:03.814Z,1.08
2022-12-19T00:12:03.786Z,1.22
2022-12-19T00:13:03.752Z,1.22
2022-12-19T00:14:03.740Z,1.14
2022-12-19T00:15:03.692Z,1.23
2022-12-19T00:16:03.701Z,1.11
2022-12-19T00:17:03.638Z,1.20
2022-12-19T00:18:03.602Z,1.15
2022-12-19T00:19:03.577Z,1.23
2022-12-19T00:20:03.552Z,1.22
2022-12-19T00:21:03.516Z,1.26
2022-12-19T00:22:07.098Z,1.24
2022-12-19T00:23:03.455Z,1.14
2022-12-19T00:24:03.540Z,1.23
2022-12-19T00:25:03.396Z,1.18
2022-12-19T00:26:03.366Z,1.23
2022-12-19T00:27:03.339Z,1.20
2022-12-19T00:28:03.305Z,1.29
2022-12-19T00:29:03.276Z,1.33
2022-12-19T00:30:03.247Z,1.22
2022-12-19T00:31:03.219Z,1.30
2022-12-19T00:32:03.214Z,1.30
2022-12-19T00:33:03.165Z,1.29
2022-12-19T00:34:03.127Z,1.32
2022-12-19T00:35:03.110Z,1.34
2022-12-19T00:36:03.066Z,1.32
2022-12-19T00:37:03.037Z,1.36
2022-12-19T00:38:03.009Z,1.20
2022-12-19T00:39:08.012Z,1.32
2022-12-19T00:40:03.076Z,1.32
2022-12-19T00:41:02.918Z,1.40
2022-12-19T00:42:02.892Z,1.32
2022-12-19T00:43:02.860Z,1.34
2022-12-19T00:44:02.835Z,1.34
2022-12-19T00:45:02.807Z,1.40
2022-12-19T00:46:02.800Z,1.37
2022-12-19T00:47:02.739Z,1.33
2022-12-19T00:48:02.714Z,1.33
2022-12-19T00:49:02.685Z,1.34
2022-12-19T00:50:02.653Z,1.40
2022-12-19T00:51:02.627Z,1.36
2022-12-19T00:52:02.598Z,1.37
2022-12-19T00:53:02.564Z,1.33
2022-12-19T00:54:05.438Z,1.36
2022-12-19T00:55:02.624Z,1.37
2022-12-19T00:56:02.595Z,1.36
2022-12-19T00:57:02.443Z,1.37
2022-12-19T00:58:02.418Z,1.37
2022-12-19T00:59:02.386Z,1.37
2022-12-19T01:00:02.354Z,1.42
2022-12-19T01:01:02.396Z,1.44
2022-12-19T01:02:02.432Z,1.42
2022-12-19T01:03:02.347Z,1.44
2022-12-19T01:04:27.798Z,1.44
2022-12-19T01:05:02.205Z,1.42
2022-12-19T01:06:02.180Z,1.47
2022-12-19T01:07:03.267Z,1.44
2022-12-19T01:08:02.121Z,1.48
2022-12-19T01:09:02.086Z,1.48
2022-12-19T01:10:02.062Z,1.44
2022-12-19T01:11:02.035Z,1.41
2022-12-19T01:12:02.126Z,1.45
2022-12-19T01:13:01.978Z,1.44
2022-12-19T01:14:01.942Z,1.44
2022-12-19T01:15:04.898Z,1.48
2022-12-19T01:16:01.928Z,1.45
2022-12-19T01:17:01.853Z,1.45
2022-12-19T01:18:01.822Z,1.48
2022-12-19T01:19:02.207Z,1.45
2022-12-19T01:20:01.765Z,1.45
2022-12-19T01:21:01.734Z,1.45
2022-12-19T01:22:01.704Z,1.42
2022-12-19T01:23:01.672Z,1.48
2022-12-19T01:24:01.646Z,1.50
2022-12-19T01:25:01.613Z,1.52
2022-12-19T01:26:01.584Z,1.47
2022-12-19T01:27:01.558Z,1.50
2022-12-19T01:28:01.642Z,1.47
2022-12-19T01:29:01.492Z,1.48
2022-12-19T01:30:01.468Z,1.48
2022-12-19T01:31:01.434Z,1.48
2022-12-19T01:32:01.488Z,1.48
2022-12-19T01:33:01.373Z,1.45
2022-12-19T01:34:01.480Z,1.51
2022-12-19T01:35:01.317Z,1.48
2022-12-19T01:36:01.289Z,1.52
2022-12-19T01:37:01.263Z,1.52
2022-12-19T01:38:07.935Z,1.60
2022-12-19T01:39:01.208Z,1.63
2022-12-19T01:40:01.168Z,1.52
2022-12-19T01:41:01.141Z,1.58
2022-12-19T01:42:01.110Z,1.59
2022-12-19T01:43:01.083Z,1.52
2022-12-19T01:44:01.177Z,1.52
2022-12-19T01:45:01.020Z,1.60
2022-12-19T01:46:01.123Z,1.60
2022-12-19T01:47:00.963Z,1.63
2022-12-19T01:48:00.936Z,1.66
2022-12-19T01:49:00.902Z,1.58
2022-12-19T01:50:00.874Z,1.65
2022-12-19T01:51:02.570Z,1.59
2022-12-19T01:52:00.819Z,1.65
2022-12-19T01:53:00.783Z,1.60
2022-12-19T01:54:00.759Z,1.63
2022-12-19T01:55:00.723Z,1.66
2022-12-19T01:56:00.696Z,1.68
2022-12-19T01:57:00.645Z,1.66
2022-12-19T01:58:00.622Z,1.63
2022-12-19T01:59:06.631Z,1.68
2022-12-19T02:00:00.668Z,1.70
2022-12-19T02:01:00.557Z,1.68
2022-12-19T02:02:00.719Z,1.68
2022-12-19T02:03:00.614Z,1.58
2022-12-19T02:04:00.434Z,1.68
2022-12-19T02:05:00.398Z,1.77
2022-12-19T02:06:00.370Z,1.70
2022-12-19T02:07:00.339Z,1.80
2022-12-19T02:08:00.320Z,1.79
2022-12-19T02:09:00.282Z,1.73
2022-12-19T02:10:00.256Z,1.72
2022-12-19T02:11:00.237Z,1.76
2022-12-19T02:12:00.194Z,1.83
2022-12-19T02:13:00.167Z,1.87
2022-12-19T02:14:00.144Z,1.80
2022-12-19T02:15:02.779Z,1.83
2022-12-19T02:16:00.201Z,1.86
2022-12-19T02:17:00.100Z,1.77
2022-12-19T02:18:00.025Z,1.83
2022-12-19T02:18:59.993Z,1.84
2022-12-19T02:19:59.963Z,1.87
2022-12-19T02:20:59.936Z,1.84
2022-12-19T02:21:59.908Z,1.80
2022-12-19T02:22:59.881Z,1.87
2022-12-19T02:23:59.845Z,1.81
2022-12-19T02:24:59.846Z,1.91
2022-12-19T02:25:59.789Z,1.99
2022-12-19T02:26:59.753Z,1.98
2022-12-19T02:27:59.735Z,1.83
2022-12-19T02:28:59.700Z,1.93
2022-12-19T02:29:59.673Z,1.93
2022-12-19T02:30:59.644Z,1.87
2022-12-19T02:31:59.799Z,1.95
2022-12-19T02:32:59.584Z,1.90
2022-12-19T02:33:59.559Z,2.02
2022-12-19T02:34:59.533Z,1.86
2022-12-19T02:35:59.499Z,1.95
2022-12-19T02:36:59.479Z,1.87
2022-12-19T02:37:59.449Z,1.91
2022-12-19T02:38:59.414Z,1.87
2022-12-19T02:39:59.388Z,1.95
2022-12-19T02:40:59.365Z,1.93
2022-12-19T02:41:59.340Z,1.87
2022-12-19T02:42:59.297Z,1.95
2022-12-19T02:43:59.268Z,1.93
2022-12-19T02:44:59.236Z,2.00
2022-12-19T02:45:59.247Z,1.95
2022-12-19T02:46:59.195Z,2.06
2022-12-19T02:48:00.777Z,2.02
2022-12-19T02:48:59.146Z,2.00
2022-12-19T02:49:59.096Z,1.99
2022-12-19T02:50:59.065Z,2.00
2022-12-19T02:51:59.048Z,2.05
2022-12-19T02:52:59.006Z,2.05
2022-12-19T02:53:58.985Z,2.05
2022-12-19T02:54:58.947Z,2.12
2022-12-19T02:55:58.945Z,2.14
2022-12-19T02:56:58.912Z,2.14
2022-12-19T02:57:58.879Z,2.12
2022-12-19T02:58:58.844Z,2.10
2022-12-19T02:59:58.833Z,2.18
2022-12-19T03:00:58.840Z,2.14
2022-12-19T03:01:59.041Z,2.18
2022-12-19T03:03:01.112Z,2.20
2022-12-19T03:03:58.823Z,2.16
2022-12-19T03:04:58.668Z,2.21
2022-12-19T03:05:58.637Z,2.27
2022-12-19T03:06:58.604Z,2.20
2022-12-19T03:07:58.576Z,2.27
2022-12-19T03:08:58.556Z,2.24
2022-12-19T03:09:58.520Z,2.21
2022-12-19T03:10:58.496Z,2.18
2022-12-19T03:11:58.467Z,2.23
2022-12-19T03:12:58.433Z,2.20
2022-12-19T03:13:58.414Z,2.25
2022-12-19T03:14:58.376Z,2.21
2022-12-19T03:15:58.356Z,2.31
2022-12-19T03:16:58.355Z,2.27
2022-12-19T03:17:58.291Z,2.28
2022-12-19T03:18:58.257Z,2.27
2022-12-19T03:19:58.353Z,2.18
2022-12-19T03:20:58.206Z,2.35
2022-12-19T03:21:58.188Z,2.27
2022-12-19T03:22:58.142Z,2.28
2022-12-19T03:23:58.114Z,2.31
2022-12-19T03:24:58.108Z,2.23
2022-12-19T03:25:58.053Z,2.30
2022-12-19T03:26:58.026Z,2.25
2022-12-19T03:27:58.004Z,2.34
2022-12-19T03:28:57.972Z,2.36
2022-12-19T03:29:58.030Z,2.28
2022-12-19T03:30:58.010Z,2.28
2022-12-19T03:31:57.881Z,2.25
2022-12-19T03:32:57.852Z,2.41
2022-12-19T03:33:57.829Z,2.45
2022-12-19T03:34:57.794Z,2.41
2022-12-19T03:35:57.891Z,2.41
2022-12-19T03:36:57.737Z,2.42
2022-12-19T03:37:57.717Z,2.41
2022-12-19T03:38:57.701Z,2.43
2022-12-19T03:39:57.659Z,2.42
2022-12-19T03:40:57.649Z,2.34
2022-12-19T03:41:57.597Z,2.36
2022-12-19T03:42:57.570Z,2.39
2022-12-19T03:43:57.537Z,2.36
2022-12-19T03:44:57.509Z,2.31
2022-12-19T03:45:57.510Z,2.43
2022-12-19T03:46:57.453Z,2.35
2022-12-19T03:47:57.431Z,2.38
2022-12-19T03:48:57.389Z,2.41
2022-12-19T03:49:57.369Z,2.36
2022-12-19T03:50:57.333Z,2.43
2022-12-19T03:51:59.482Z,2.41
2022-12-19T03:52:57.273Z,2.43
2022-12-19T03:53:57.260Z,2.46
2022-12-19T03:54:57.218Z,2.42
2022-12-19T03:55:57.200Z,2.42
2022-12-19T03:56:57.186Z,2.43
2022-12-19T03:57:57.133Z,2.52
2022-12-19T03:58:57.100Z,2.42
2022-12-19T03:59:57.084Z,2.46
2022-12-19T04:00:57.040Z,2.42
2022-12-19T04:01:57.124Z,2.42
2022-12-19T04:02:56.994Z,2.43
2022-12-19T04:03:56.958Z,2.43
2022-12-19T04:04:56.931Z,2.52
2022-12-19T04:05:56.915Z,2.53
2022-12-19T04:06:56.864Z,2.56
2022-12-19T04:07:56.956Z,2.56
2022-12-19T04:08:56.815Z,2.60
2022-12-19T04:09:56.793Z,2.53
2022-12-19T04:10:56.751Z,2.56
2022-12-19T04:11:56.725Z,2.57
2022-12-19T04:12:56.701Z,2.59
2022-12-19T04:13:56.669Z,2.59
2022-12-19T04:14:56.633Z,2.63
2022-12-19T04:15:56.645Z,2.63
2022-12-19T04:16:56.585Z,2.64
2022-12-19T04:17:56.555Z,2.60
2022-12-19T04:18:56.517Z,2.64
2022-12-19T04:19:56.495Z,2.66
2022-12-19T04:20:56.465Z,2.63
2022-12-19T04:21:56.444Z,2.64
2022-12-19T04:22:56.419Z,2.69
2022-12-19T04:23:56.512Z,2.63
2022-12-19T04:24:56.354Z,2.71
2022-12-19T04:25:56.321Z,2.69
2022-12-19T04:26:56.289Z,2.71
2022-12-19T04:27:56.265Z,2.64
2022-12-19T04:28:56.236Z,2.67
2022-12-19T04:29:56.203Z,2.69
2022-12-19T04:30:56.213Z,2.74
2022-12-19T04:31:56.145Z,2.75
2022-12-19T04:32:56.112Z,2.81
2022-12-19T04:33:56.089Z,2.82
2022-12-19T04:34:56.059Z,2.79
2022-12-19T04:35:56.034Z,2.77
2022-12-19T04:36:55.999Z,2.79
2022-12-19T04:37:55.976Z,2.81
2022-12-19T04:38:55.944Z,2.85
2022-12-19T04:39:56.040Z,2.81
2022-12-19T04:40:55.880Z,2.81
2022-12-19T04:41:55.865Z,2.85
2022-12-19T04:42:55.823Z,2.81
2022-12-19T04:43:55.799Z,2.81
2022-12-19T04:44:55.767Z,2.85
2022-12-19T04:45:57.672Z,2.89
2022-12-19T04:46:55.796Z,2.92
2022-12-19T04:47:55.688Z,2.97
2022-12-19T04:48:55.644Z,2.90
2022-12-19T04:49:55.633Z,2.93
2022-12-19T04:50:55.595Z,2.99
2022-12-19T04:51:55.563Z,2.99
2022-12-19T04:52:57.165Z,2.92
2022-12-19T04:53:55.501Z,2.97
2022-12-19T04:54:55.477Z,2.92
2022-12-19T04:55:55.582Z,2.95
2022-12-19T04:56:55.422Z,2.96
2022-12-19T04:57:55.388Z,2.93
2022-12-19T04:58:55.378Z,3.02
2022-12-19T04:59:55.332Z,2.99
2022-12-19T05:00:55.304Z,3.10
2022-12-19T05:01:55.348Z,3.02
2022-12-19T05:02:55.551Z,3.05
2022-12-19T05:03:59.944Z,3.11
2022-12-19T05:04:55.196Z,3.11
2022-12-19T05:05:55.159Z,3.13
2022-12-19T05:06:55.130Z,3.13
2022-12-19T05:07:55.104Z,3.18
2022-12-19T05:08:55.073Z,3.13
2022-12-19T05:09:55.044Z,3.10
2022-12-19T05:10:55.011Z,3.15
2022-12-19T05:11:55.094Z,3.10
2022-12-19T05:12:54.995Z,3.17
2022-12-19T05:13:54.925Z,3.14
2022-12-19T05:14:54.900Z,3.14
2022-12-19T05:15:54.898Z,3.18
2022-12-19T05:17:01.205Z,3.18
2022-12-19T05:17:54.811Z,3.17
2022-12-19T05:18:54.776Z,3.23
2022-12-19T05:19:54.751Z,3.21
2022-12-19T05:20:54.728Z,3.20
2022-12-19T05:21:54.692Z,3.21
2022-12-19T05:22:54.668Z,3.20
2022-12-19T05:23:54.630Z,3.17
2022-12-19T05:24:54.609Z,3.20
2022-12-19T05:25:54.578Z,3.18
2022-12-19T05:26:54.560Z,3.20
2022-12-19T05:27:54.544Z,3.21
2022-12-19T05:28:54.492Z,3.24
2022-12-19T05:29:54.461Z,3.18
2022-12-19T05:30:54.477Z,3.21
2022-12-19T05:31:54.411Z,3.28
2022-12-19T05:32:54.384Z,3.14
2022-12-19T05:33:54.343Z,3.29
2022-12-19T05:34:54.322Z,3.23
2022-12-19T05:35:54.289Z,3.31
2022-12-19T05:36:54.260Z,3.33
2022-12-19T05:37:54.227Z,3.28
2022-12-19T05:38:54.203Z,3.39
2022-12-19T05:39:54.175Z,3.31
2022-12-19T05:40:54.165Z,3.32
2022-12-19T05:41:54.118Z,3.29
2022-12-19T05:42:54.086Z,3.39
2022-12-19T05:43:54.182Z,3.42
2022-12-19T05:44:54.031Z,3.39
2022-12-19T05:45:54.006Z,3.39
2022-12-19T05:46:54.018Z,3.32
2022-12-19T05:47:56.602Z,3.31
2022-12-19T05:48:53.922Z,3.40
2022-12-19T05:49:53.885Z,3.42
2022-12-19T05:50:53.857Z,3.47
2022-12-19T05:51:53.824Z,3.43
2022-12-19T05:52:53.802Z,3.42
2022-12-19T05:53:53.772Z,3.45
2022-12-19T05:54:53.750Z,3.45
2022-12-19T05:55:53.735Z,3.40
2022-12-19T05:56:53.687Z,3.47
2022-12-19T05:57:53.655Z,3.42
2022-12-19T05:58:53.633Z,3.52
2022-12-19T05:59:53.715Z,3.45
2022-12-19T06:00:59.327Z,3.54
2022-12-19T06:01:53.699Z,3.51
2022-12-19T06:02:53.689Z,3.48
2022-12-19T06:03:53.515Z,3.57
2022-12-19T06:04:53.456Z,3.52
2022-12-19T06:05:53.423Z,3.54
2022-12-19T06:06:53.396Z,3.60
2022-12-19T06:07:53.367Z,3.60
2022-12-19T06:08:53.345Z,3.62
2022-12-19T06:09:53.308Z,3.62
2022-12-19T06:10:53.285Z,3.61
2022-12-19T06:11:53.251Z,3.70
2022-12-19T06:12:53.227Z,3.72
2022-12-19T06:13:53.193Z,3.72
2022-12-19T06:14:53.167Z,3.80
2022-12-19T06:15:53.267Z,3.80
2022-12-19T06:16:53.111Z,3.76
2022-12-19T06:17:53.081Z,3.84
2022-12-19T06:18:53.063Z,3.72
2022-12-19T06:19:53.027Z,3.79
2022-12-19T06:20:53.001Z,3.84
2022-12-19T06:21:52.972Z,3.90
2022-12-19T06:22:52.944Z,3.76
2022-12-19T06:23:52.909Z,3.84
2022-12-19T06:24:52.899Z,3.88
2022-12-19T06:25:52.847Z,3.88
2022-12-19T06:26:52.831Z,3.86
2022-12-19T06:27:52.809Z,3.96
2022-12-19T06:28:52.811Z,3.93
2022-12-19T06:29:52.734Z,3.91
2022-12-19T06:30:52.713Z,3.88
2022-12-19T06:31:52.866Z,3.94
2022-12-19T06:32:52.652Z,3.98
2022-12-19T06:33:52.621Z,3.96
2022-12-19T06:35:04.220Z,3.98
2022-12-19T06:35:52.561Z,4.00
2022-12-19T06:36:52.541Z,4.02
2022-12-19T06:37:56.562Z,4.05
2022-12-19T06:38:52.482Z,4.00
2022-12-19T06:39:52.446Z,4.04
2022-12-19T06:40:52.430Z,4.04
2022-12-19T06:41:52.403Z,4.11
2022-12-19T06:42:52.373Z,4.00
2022-12-19T06:43:53.738Z,4.04
2022-12-19T06:44:52.309Z,4.04
2022-12-19T06:45:52.299Z,4.11
2022-12-19T06:46:52.260Z,4.04
2022-12-19T06:47:52.387Z,4.14
2022-12-19T06:48:52.195Z,4.12
2022-12-19T06:49:52.166Z,4.14
2022-12-19T06:50:52.135Z,4.15
2022-12-19T06:51:52.105Z,4.15
2022-12-19T06:52:52.086Z,4.20
2022-12-19T06:53:52.053Z,4.18
2022-12-19T06:54:52.027Z,4.27
2022-12-19T06:55:51.996Z,4.24
2022-12-19T06:56:51.985Z,4.23
2022-12-19T06:57:51.931Z,4.27
2022-12-19T06:58:51.912Z,4.24
2022-12-19T06:59:51.881Z,4.26
2022-12-19T07:00:51.936Z,4.30
2022-12-19T07:01:51.891Z,4.37
2022-12-19T07:02:51.932Z,4.27
2022-12-19T07:03:51.892Z,4.29
2022-12-19T07:04:51.738Z,4.33
2022-12-19T07:05:51.720Z,4.32
2022-12-19T07:06:51.707Z,4.32
2022-12-19T07:07:51.649Z,4.33
2022-12-19T07:08:51.622Z,4.32
2022-12-19T07:09:51.598Z,4.36
2022-12-19T07:10:51.624Z,4.37
2022-12-19T07:11:51.536Z,4.32
2022-12-19T07:12:51.516Z,4.48
2022-12-19T07:13:51.480Z,4.47
2022-12-19T07:14:53.624Z,4.51
2022-12-19T07:15:51.426Z,4.50
2022-12-19T07:16:51.422Z,4.48
2022-12-19T07:17:51.379Z,4.48
2022-12-19T07:18:51.348Z,4.44
2022-12-19T07:19:51.428Z,4.63
2022-12-19T07:20:51.284Z,4.63
2022-12-19T07:21:51.256Z,4.60
2022-12-19T07:22:51.234Z,4.67
2022-12-19T07:23:51.209Z,4.60
2022-12-19T07:24:51.174Z,4.65
2022-12-19T07:25:51.166Z,4.60
2022-12-19T07:26:51.115Z,4.69
2022-12-19T07:27:51.088Z,4.65
2022-12-19T07:28:51.056Z,4.59
2022-12-19T07:29:51.026Z,4.66
2022-12-19T07:30:50.999Z,4.65
2022-12-19T07:31:51.001Z,4.75
2022-12-19T07:32:50.939Z,4.59
2022-12-19T07:33:50.915Z,4.62
2022-12-19T07:34:50.891Z,4.66
2022-12-19T07:35:50.974Z,4.65
2022-12-19T07:36:50.835Z,4.72
2022-12-19T07:37:50.800Z,4.69
2022-12-19T07:38:50.770Z,4.69
2022-12-19T07:39:50.742Z,4.72
2022-12-19T07:40:50.721Z,4.72
2022-12-19T07:41:50.695Z,4.73
2022-12-19T07:42:50.656Z,4.82
2022-12-19T07:43:50.632Z,4.84
2022-12-19T07:44:50.613Z,4.84
2022-12-19T07:45:50.641Z,4.88
2022-12-19T07:46:50.551Z,4.92
2022-12-19T07:47:50.517Z,4.94
2022-12-19T07:48:50.493Z,4.92
2022-12-19T07:49:50.460Z,4.94
2022-12-19T07:50:50.449Z,4.96
2022-12-19T07:51:50.540Z,4.89
2022-12-19T07:52:50.378Z,5.02
2022-12-19T07:53:50.344Z,4.94
2022-12-19T07:54:50.334Z,4.88
2022-12-19T07:55:50.289Z,4.92
2022-12-19T07:56:50.266Z,4.91
2022-12-19T07:57:50.232Z,5.02
2022-12-19T07:58:50.244Z,5.07
2022-12-19T07:59:50.176Z,5.12
2022-12-19T08:00:50.162Z,5.09
2022-12-19T08:01:50.267Z,5.15
2022-12-19T08:02:50.184Z,5.18
2022-12-19T08:03:50.063Z,5.15
2022-12-19T08:04:50.041Z,5.22
2022-12-19T08:05:50.000Z,5.25
2022-12-19T08:06:49.991Z,5.31
2022-12-19T08:07:50.064Z,5.28
2022-12-19T08:08:49.926Z,5.35
2022-12-19T08:09:49.898Z,5.38
2022-12-19T08:10:49.881Z,5.27
2022-12-19T08:11:49.839Z,5.35
2022-12-19T08:12:49.815Z,5.35
2022-12-19T08:13:49.780Z,5.38
2022-12-19T08:14:52.788Z,5.36
2022-12-19T08:15:49.724Z,5.39
2022-12-19T08:17:19.312Z,5.40
2022-12-19T08:17:49.685Z,5.51
2022-12-19T08:18:49.644Z,5.53
2022-12-19T08:19:49.622Z,5.57
2022-12-19T08:20:49.624Z,5.53
2022-12-19T08:21:49.565Z,5.48
2022-12-19T08:22:49.535Z,5.48
2022-12-19T08:23:49.625Z,5.63
2022-12-19T08:24:49.483Z,5.53
2022-12-19T08:25:49.549Z,5.64
2022-12-19T08:26:49.419Z,5.64
2022-12-19T08:27:49.390Z,5.67
2022-12-19T08:28:49.365Z,5.58
2022-12-19T08:29:49.369Z,5.64
2022-12-19T08:30:49.348Z,5.61
2022-12-19T08:31:49.276Z,5.71
2022-12-19T08:32:49.265Z,5.60
2022-12-19T08:33:49.232Z,5.56
2022-12-19T08:34:49.201Z,5.57
2022-12-19T08:35:49.162Z,5.65
2022-12-19T08:36:49.139Z,5.67
2022-12-19T08:37:49.122Z,5.71
2022-12-19T08:38:49.087Z,5.79
2022-12-19T08:39:49.180Z,5.65
2022-12-19T08:40:49.031Z,5.78
2022-12-19T08:41:48.995Z,5.76
2022-12-19T08:42:48.978Z,5.61
2022-12-19T08:43:48.941Z,5.64
2022-12-19T08:44:48.917Z,5.65
2022-12-19T08:45:48.956Z,5.57
2022-12-19T08:46:50.511Z,5.64
2022-12-19T08:47:48.825Z,5.64
2022-12-19T08:48:48.810Z,5.81
2022-12-19T08:49:48.779Z,5.83
2022-12-19T08:50:48.752Z,5.76
2022-12-19T08:51:48.729Z,5.71
2022-12-19T08:52:48.691Z,5.71
2022-12-19T08:53:48.660Z,5.67
2022-12-19T08:54:48.633Z,5.72
2022-12-19T08:55:48.726Z,5.79
2022-12-19T08:56:48.583Z,5.93
2022-12-19T08:57:48.549Z,5.78
2022-12-19T08:58:48.531Z,5.86
2022-12-19T08:59:48.490Z,5.86
2022-12-19T09:00:54.724Z,5.97
2022-12-19T09:01:48.639Z,5.93
2022-12-19T09:02:48.602Z,5.91
2022-12-19T09:03:55.453Z,5.93
2022-12-19T09:06:03.130Z,5.91
2022-12-19T09:06:03.699Z,5.91
2022-12-19T09:06:48.358Z,5.99
2022-12-19T09:07:48.270Z,5.91
2022-12-19T09:08:48.260Z,5.90
2022-12-19T09:09:48.215Z,5.94
2022-12-19T09:10:48.193Z,6.00
2022-12-19T09:11:48.527Z,5.97
2022-12-19T09:12:52.893Z,5.90
2022-12-19T09:13:48.110Z,5.96
2022-12-19T09:14:48.084Z,6.00
2022-12-19T09:15:48.054Z,6.03
2022-12-19T09:16:48.088Z,6.04
2022-12-19T09:17:47.998Z,6.01
2022-12-19T09:18:48.778Z,6.08
2022-12-19T09:19:48.469Z,6.08
2022-12-19T09:20:47.914Z,6.01
2022-12-19T09:21:47.887Z,6.19
2022-12-19T09:22:47.856Z,6.18
2022-12-19T09:23:47.847Z,6.15
2022-12-19T09:24:47.802Z,6.17
2022-12-19T09:25:47.773Z,6.14
2022-12-19T09:26:47.743Z,6.15
2022-12-19T09:28:25.981Z,6.17
2022-12-19T09:28:47.720Z,6.19
2022-12-19T09:29:47.659Z,6.25
2022-12-19T09:30:47.679Z,6.18
2022-12-19T09:31:47.627Z,6.18
2022-12-19T09:32:47.595Z,6.12
2022-12-19T09:33:47.549Z,6.15
2022-12-19T09:34:47.530Z,6.21
2022-12-19T09:35:47.496Z,6.18
2022-12-19T09:36:47.476Z,6.18
2022-12-19T09:37:47.442Z,6.04
2022-12-19T09:38:47.405Z,6.08
2022-12-19T09:39:47.386Z,6.15
2022-12-19T09:40:47.356Z,6.14
2022-12-19T09:41:47.329Z,6.14
2022-12-19T09:42:47.300Z,6.28
2022-12-19T09:43:47.405Z,6.18
2022-12-19T09:44:47.256Z,6.14
2022-12-19T09:45:47.255Z,6.30
2022-12-19T09:46:47.189Z,6.34
2022-12-19T09:47:47.166Z,6.34
2022-12-19T09:48:54.046Z,6.34
2022-12-19T09:49:47.112Z,6.36
2022-12-19T09:50:47.079Z,6.30
2022-12-19T09:51:47.051Z,6.40
2022-12-19T09:52:47.022Z,6.38
2022-12-19T09:53:53.731Z,6.41
2022-12-19T09:54:46.969Z,6.36
2022-12-19T09:55:46.946Z,6.33
2022-12-19T09:56:47.047Z,6.37
2022-12-19T09:57:46.893Z,6.37
2022-12-19T09:58:46.856Z,6.40
2022-12-19T09:59:49.963Z,6.40
2022-12-19T10:00:46.822Z,6.44
2022-12-19T10:01:46.913Z,6.40
2022-12-19T10:02:46.883Z,6.41
2022-12-19T10:03:46.758Z,6.51
2022-12-19T10:04:46.694Z,6.48
2022-12-19T10:06:15.065Z,6.66
2022-12-19T10:07:15.826Z,6.61
2022-12-19T10:08:07.194Z,6.55
2022-12-19T10:09:31.631Z,6.70
2022-12-19T10:12:24.900Z,6.61
2022-12-19T10:12:40.926Z,6.67
2022-12-19T10:12:44.271Z,6.58
2022-12-19T10:12:50.832Z,6.55
2022-12-19T10:13:46.445Z,6.61
2022-12-19T10:14:46.414Z,6.61
2022-12-19T10:15:46.541Z,6.56
2022-12-19T10:17:08.528Z,6.59
2022-12-19T10:17:46.341Z,6.66
2022-12-19T10:18:51.024Z,6.62
2022-12-19T10:19:46.309Z,6.59
2022-12-19T10:20:46.256Z,6.66
2022-12-19T10:22:46.197Z,6.64
2022-12-19T10:23:46.172Z,6.62
2022-12-19T10:24:57.578Z,6.70
2022-12-19T10:25:46.117Z,6.80
2022-12-19T10:26:46.089Z,6.73
2022-12-19T10:27:59.427Z,6.73
2022-12-19T10:28:46.029Z,6.71
2022-12-19T10:29:46.007Z,6.66
2022-12-19T10:30:46.033Z,6.66
2022-12-19T10:31:46.084Z,6.69
2022-12-19T10:32:45.929Z,6.73
2022-12-19T10:33:45.901Z,6.76
2022-12-19T10:34:45.869Z,6.79
2022-12-19T10:35:45.862Z,6.76
2022-12-19T10:37:49.584Z,6.79
2022-12-19T10:38:51.258Z,6.76
2022-12-19T10:39:45.746Z,6.87
2022-12-19T10:40:45.748Z,6.79
2022-12-19T10:41:45.700Z,6.80
2022-12-19T10:42:45.662Z,6.91
2022-12-19T10:43:45.785Z,6.89
2022-12-19T10:44:45.596Z,6.91
2022-12-19T10:45:47.074Z,6.84
2022-12-19T10:46:45.609Z,6.80
2022-12-19T10:47:45.653Z,6.89
2022-12-19T10:48:45.504Z,6.94
2022-12-19T10:49:45.466Z,6.92
2022-12-19T10:50:45.436Z,6.92
2022-12-19T10:51:45.466Z,7.03
2022-12-19T10:52:45.381Z,6.89
2022-12-19T10:53:45.347Z,6.88
2022-12-19T10:54:45.323Z,6.95
2022-12-19T10:55:45.291Z,6.87
2022-12-19T10:56:45.273Z,6.94
2022-12-19T10:57:45.238Z,6.91
2022-12-19T10:58:45.223Z,6.94
2022-12-19T10:59:45.193Z,6.94
2022-12-19T11:00:45.162Z,6.94
2022-12-19T11:01:45.314Z,6.89
2022-12-19T11:02:45.506Z,7.07
2022-12-19T11:03:46.521Z,7.06
2022-12-19T11:04:45.156Z,7.07
2022-12-19T11:05:45.067Z,7.05
2022-12-19T11:06:45.076Z,6.94
2022-12-19T11:07:44.979Z,6.91
2022-12-19T11:08:44.936Z,6.94
2022-12-19T11:09:48.161Z,6.92
2022-12-19T11:12:02.658Z,7.06
2022-12-19T11:15:42.559Z,7.07
2022-12-19T11:16:17.901Z,6.95
2022-12-19T11:18:27.698Z,6.89
2022-12-19T11:20:11.597Z,6.94
2022-12-19T11:20:17.878Z,6.89
2022-12-19T11:25:01.754Z,6.94
2022-12-19T11:25:39.302Z,6.94
2022-12-19T11:27:23.991Z,7.05
2022-12-19T11:29:25.301Z,7.05
2022-12-19T11:29:25.902Z,7.06
2022-12-19T11:29:30.941Z,6.99
2022-12-19T11:29:36.449Z,7.15
2022-12-19T11:30:08.653Z,7.05
2022-12-19T11:30:36.477Z,7.07
2022-12-19T11:30:38.646Z,7.13
2022-12-19T11:30:39.206Z,7.07
2022-12-19T11:30:44.240Z,7.15
2022-12-19T11:30:44.326Z,7.15
2022-12-19T11:32:32.088Z,7.17
2022-12-19T11:32:46.005Z,7.24
2022-12-19T11:33:44.297Z,7.24
2022-12-19T11:34:44.240Z,7.21
2022-12-19T11:35:44.321Z,7.28
2022-12-19T11:36:44.190Z,7.24
2022-12-19T11:37:44.156Z,7.23
2022-12-19T11:38:44.125Z,7.27
2022-12-19T11:39:44.096Z,7.21
2022-12-19T11:40:49.003Z,7.27
2022-12-19T11:41:44.061Z,7.28
2022-12-19T11:42:44.023Z,7.21
2022-12-19T11:43:45.718Z,7.23
2022-12-19T11:44:43.960Z,7.24
2022-12-19T11:45:43.940Z,7.20
2022-12-19T11:46:43.931Z,7.23
2022-12-19T11:47:43.876Z,7.23
2022-12-19T11:48:43.850Z,7.28
2022-12-19T11:49:43.839Z,7.28
2022-12-19T11:50:43.795Z,7.30
2022-12-19T11:51:43.901Z,7.28
2022-12-19T11:53:43.719Z,7.32
2022-12-19T11:54:43.692Z,7.43
2022-12-19T11:55:43.672Z,7.37
2022-12-19T11:56:43.635Z,7.35
2022-12-19T11:57:43.610Z,7.35
2022-12-19T11:58:43.579Z,7.37
2022-12-19T11:59:43.553Z,7.34
2022-12-19T12:00:43.524Z,7.31
2022-12-19T12:01:43.640Z,7.35
2022-12-19T12:02:43.473Z,7.30
2022-12-19T12:04:01.662Z,7.34
2022-12-19T12:04:43.519Z,7.30
2022-12-19T12:05:43.401Z,7.30
2022-12-19T12:06:45.506Z,7.39
2022-12-19T12:10:38.464Z,7.32
2022-12-19T12:11:09.199Z,7.32
2022-12-19T12:13:35.559Z,7.37
2022-12-19T12:16:09.397Z,7.24
2022-12-19T12:18:15.246Z,7.27
2022-12-19T12:20:20.232Z,7.35
2022-12-19T12:21:38.661Z,7.32
2022-12-19T12:25:34.911Z,7.37
2022-12-19T12:26:30.579Z,7.42
2022-12-19T12:27:47.301Z,7.37
2022-12-19T12:31:00.548Z,7.35
2022-12-19T12:31:05.106Z,7.34
2022-12-19T12:31:10.062Z,7.39
2022-12-19T12:31:10.132Z,7.37
2022-12-19T12:31:14.257Z,7.35
2022-12-19T12:31:32.351Z,7.24
2022-12-19T12:31:38.595Z,7.40
2022-12-19T12:31:42.405Z,7.32
2022-12-19T12:31:46.583Z,7.48
2022-12-19T12:31:48.871Z,7.42
2022-12-19T12:31:53.741Z,7.34
2022-12-19T12:31:54.268Z,7.34
2022-12-19T12:31:57.747Z,7.42
2022-12-19T12:31:58.100Z,7.32
2022-12-19T12:35:32.948Z,7.39
2022-12-19T12:35:38.337Z,7.35
2022-12-19T12:35:42.377Z,7.31
2022-12-19T12:38:13.735Z,7.40
2022-12-19T12:38:42.860Z,7.46
2022-12-19T12:39:42.509Z,7.40
2022-12-19T12:40:42.452Z,7.35
2022-12-19T12:41:42.427Z,7.37
2022-12-19T12:42:42.423Z,7.35
2022-12-19T12:43:42.376Z,7.37
2022-12-19T12:44:45.863Z,7.40
2022-12-19T12:45:42.386Z,7.40
2022-12-19T12:46:42.288Z,7.35
2022-12-19T12:47:42.258Z,7.34
2022-12-19T12:48:42.238Z,7.42
2022-12-19T12:49:42.212Z,7.35
2022-12-19T12:50:42.190Z,7.32
2022-12-19T12:51:42.158Z,7.37
2022-12-19T12:52:42.132Z,7.34
2022-12-19T12:53:42.096Z,7.37
2022-12-19T12:54:42.068Z,7.37
2022-12-19T12:55:42.079Z,7.35
2022-12-19T12:56:42.024Z,7.35
2022-12-19T12:57:42.008Z,7.34
2022-12-19T12:58:41.974Z,7.37
2022-12-19T12:59:41.937Z,7.35
2022-12-19T13:00:41.914Z,7.37
2022-12-19T13:01:42.057Z,7.30
2022-12-19T13:02:41.945Z,7.42
2022-12-19T13:03:41.942Z,7.34
2022-12-19T13:04:41.802Z,7.35
2022-12-19T13:05:41.780Z,7.35
2022-12-19T13:06:41.762Z,7.39
2022-12-19T13:07:41.727Z,7.35
2022-12-19T13:08:41.701Z,7.34
2022-12-19T13:09:41.667Z,7.34
2022-12-19T13:10:41.640Z,7.34
2022-12-19T13:11:41.640Z,7.37
2022-12-19T13:12:41.595Z,7.37
2022-12-19T13:13:41.561Z,7.40
2022-12-19T13:14:41.532Z,7.40
2022-12-19T13:15:41.508Z,7.40
2022-12-19T13:16:41.558Z,7.34
2022-12-19T13:17:41.451Z,7.40
2022-12-19T13:18:41.439Z,7.35
2022-12-19T13:19:41.402Z,7.39
2022-12-19T13:20:41.370Z,7.35
2022-12-19T13:21:41.348Z,7.39
2022-12-19T13:22:41.313Z,7.35
2022-12-19T13:23:41.297Z,7.43
2022-12-19T13:24:41.275Z,7.40
2022-12-19T13:25:41.232Z,7.50